Time;durP1;ratioP1;P1;durP2;ratioP2;P2;SDS_P1;SDS_P2;PMS_P1;PMS_P2;Temp;Humidity;BMP_temperature;BMP_pressure;BME280_temperature;BME280_humidity;BME280_pressure;Samples;Min_cycle;Max_cycle;Signal;HPM_P1;HPM_P2
2022/12/21 00:01:31;;;;;;;19.03;13.63;;;9.50;99.90;;;;;;5094445;28;20618;-67
2022/12/21 00:03:59;;;;;;;20.87;15.33;;;9.50;99.90;;;;;;5094387;28;20189;-67
2022/12/21 00:06:27;;;;;;;22.13;15.83;;;9.50;99.90;;;;;;5076317;28;20219;-67
2022/12/21 00:08:56;;;;;;;21.97;15.47;;;9.50;99.90;;;;;;5094414;28;20181;-67
2022/12/21 00:11:23;;;;;;;23.83;15.87;;;9.50;99.90;;;;;;5075954;28;20203;-68
2022/12/21 00:13:50;;;;;;;24.27;16.10;;;9.50;99.90;;;;;;5094206;28;20729;-68
2022/12/21 00:16:18;;;;;;;23.10;15.43;;;9.40;99.90;;;;;;5093945;28;20180;-68
2022/12/21 00:18:46;;;;;;;24.17;15.93;;;9.50;99.90;;;;;;5094506;28;20622;-68
2022/12/21 00:21:17;;;;;;;24.80;16.13;;;9.50;99.90;;;;;;5094183;28;20170;-68
2022/12/21 00:23:44;;;;;;;23.13;16.33;;;9.50;99.90;;;;;;5076065;28;20250;-68
2022/12/21 00:26:12;;;;;;;26.20;17.40;;;9.50;99.90;;;;;;5094022;28;20546;-68
2022/12/21 00:28:39;;;;;;;27.80;17.17;;;9.50;99.90;;;;;;5093886;28;20192;-68
2022/12/21 00:31:07;;;;;;;30.20;18.67;;;9.50;99.90;;;;;;5094345;28;20205;-67
2022/12/21 00:33:33;;;;;;;27.53;18.67;;;9.40;99.90;;;;;;5093950;28;20197;-67
2022/12/21 00:35:59;;;;;;;28.57;18.87;;;9.50;99.90;;;;;;5094229;28;20172;-67
2022/12/21 00:38:25;;;;;;;31.80;19.37;;;9.40;99.90;;;;;;5094408;28;20677;-67
2022/12/21 00:40:56;;;;;;;29.53;17.27;;;9.40;99.90;;;;;;5093666;28;20185;-68
2022/12/21 00:43:23;;;;;;;30.90;19.00;;;9.50;99.90;;;;;;5094142;28;20200;-68
2022/12/21 00:45:48;;;;;;;30.90;19.43;;;9.40;99.90;;;;;;5094111;28;20177;-67
2022/12/21 00:48:14;;;;;;;31.13;19.90;;;9.40;99.90;;;;;;5075651;28;20251;-67
2022/12/21 00:50:40;;;;;;;37.40;21.30;;;9.40;99.90;;;;;;5093651;28;20204;-67
2022/12/21 00:53:06;;;;;;;33.20;20.70;;;9.40;99.90;;;;;;5075516;28;20668;-68
2022/12/21 00:55:31;;;;;;;35.57;21.33;;;9.40;99.90;;;;;;5075405;28;20181;-68
2022/12/21 00:58:00;;;;;;;33.83;21.00;;;9.30;99.90;;;;;;5093514;28;20203;-67
2022/12/21 01:00:26;;;;;;;35.80;21.67;;;9.30;99.90;;;;;;5094059;28;20177;-67
2022/12/21 01:02:52;;;;;;;33.83;22.03;;;9.30;99.90;;;;;;5093378;28;20176;-68
2022/12/21 01:05:18;;;;;;;33.17;19.93;;;9.40;99.90;;;;;;5094054;28;20192;-68
2022/12/21 01:07:43;;;;;;;32.73;21.03;;;9.30;99.90;;;;;;5075256;28;20189;-67
2022/12/21 01:10:10;;;;;;;36.50;20.90;;;9.40;99.90;;;;;;5093465;28;20176;-68
2022/12/21 01:12:36;;;;;;;36.47;21.13;;;9.30;99.90;;;;;;5074961;28;20192;-67
2022/12/21 01:15:02;;;;;;;41.07;21.90;;;9.30;99.90;;;;;;5093653;28;20239;-67
2022/12/21 01:17:28;;;;;;;32.63;20.63;;;9.30;99.90;;;;;;5093280;28;20258;-68
2022/12/21 01:19:54;;;;;;;36.10;22.03;;;9.30;99.90;;;;;;5093423;28;20173;-68
2022/12/21 01:22:19;;;;;;;38.03;22.53;;;9.30;99.90;;;;;;5093657;28;20173;-67
2022/12/21 01:24:46;;;;;;;38.43;21.23;;;9.30;99.90;;;;;;5093550;28;20197;-68
2022/12/21 01:27:12;;;;;;;38.07;21.57;;;9.30;99.90;;;;;;5093028;28;20200;-68
2022/12/21 01:29:38;;;;;;;35.80;20.73;;;9.30;99.90;;;;;;5077866;28;20181;-67
2022/12/21 01:32:04;;;;;;;37.43;21.67;;;9.30;99.90;;;;;;5097594;28;20181;-67
2022/12/21 01:34:30;;;;;;;37.57;20.20;;;9.30;99.90;;;;;;5097464;28;20197;-67
2022/12/21 01:36:56;;;;;;;39.23;20.13;;;9.40;99.90;;;;;;5097663;28;20211;-68
2022/12/21 01:39:22;;;;;;;33.90;20.67;;;9.40;99.90;;;;;;5079211;28;20172;-68
2022/12/21 01:41:47;;;;;;;40.07;22.50;;;9.40;99.90;;;;;;5097193;28;20188;-67
2022/12/21 01:44:50;;;;;;;41.13;21.57;;;9.40;99.90;;;;;;5097104;28;20272;-67
2022/12/21 01:47:22;;;;;;;35.63;21.47;;;9.40;99.90;;;;;;5097146;28;20185;-67
2022/12/21 01:49:56;;;;;;;41.17;23.40;;;9.30;99.90;;;;;;5078940;28;20181;-67
2022/12/21 01:52:22;;;;;;;43.07;21.97;;;9.30;99.90;;;;;;5097331;28;20559;-67
2022/12/21 01:54:58;;;;;;;36.97;22.40;;;9.30;99.90;;;;;;5096927;28;20201;-67
2022/12/21 01:57:25;;;;;;;44.80;22.70;;;9.30;99.90;;;;;;5078563;28;20665;-67
2022/12/21 01:59:55;;;;;;;40.40;22.00;;;9.30;99.90;;;;;;5097098;28;20206;-67
2022/12/21 02:02:25;;;;;;;42.83;22.20;;;9.30;99.90;;;;;;5097331;28;20176;-67
2022/12/21 02:04:52;;;;;;;38.60;21.40;;;9.40;99.90;;;;;;5096722;28;20221;-68
2022/12/21 02:07:20;;;;;;;39.07;20.80;;;9.30;99.90;;;;;;5096632;28;20184;-67
2022/12/21 02:09:47;;;;;;;44.57;22.90;;;9.30;99.90;;;;;;5078509;28;20211;-67
2022/12/21 02:12:15;;;;;;;35.10;20.07;;;9.30;99.90;;;;;;5078290;28;20189;-68
2022/12/21 02:14:44;;;;;;;41.17;22.67;;;9.30;99.90;;;;;;5096459;28;20669;-68
2022/12/21 02:17:25;;;;;;;38.60;21.97;;;9.30;99.90;;;;;;5096637;28;20664;-67
2022/12/21 02:20:14;;;;;;;44.27;21.67;;;9.30;99.90;;;;;;5096423;28;20177;-67
2022/12/21 02:22:52;;;;;;;37.87;20.60;;;9.30;99.90;;;;;;5078251;28;20170;-68
2022/12/21 02:25:55;;;;;;;40.13;21.13;;;9.30;99.90;;;;;;5078253;28;20192;-68
2022/12/21 02:28:45;;;;;;;40.03;20.40;;;9.20;99.90;;;;;;5096199;28;20201;-67
2022/12/21 02:31:38;;;;;;;42.50;21.47;;;9.30;99.90;;;;;;5078096;28;20170;-68
2022/12/21 02:34:34;;;;;;;41.13;20.90;;;9.30;99.90;;;;;;5096413;28;20196;-68
2022/12/21 02:37:44;;;;;;;42.47;20.83;;;9.30;99.90;;;;;;5096381;28;20555;-67
2022/12/21 02:40:12;;;;;;;35.10;18.87;;;9.30;99.90;;;;;;5033587;28;20704;-68
2022/12/21 02:46:01;;;;;;;42.33;22.23;;;9.30;99.90;;;;;;5096668;28;20202;-68
2022/12/21 02:49:00;;;;;;;33.30;18.73;;;9.30;99.90;;;;;;5095797;28;20262;-68
2022/12/21 02:51:43;;;;;;;42.20;20.93;;;9.30;99.90;;;;;;5072288;28;20713;-68
2022/12/21 02:54:10;;;;;;;49.30;21.83;;;9.30;99.90;;;;;;5077639;28;20223;-67
2022/12/21 02:56:36;;;;;;;46.30;22.33;;;9.30;99.90;;;;;;5095643;28;20216;-68
2022/12/21 02:59:04;;;;;;;47.40;23.00;;;9.20;99.90;;;;;;5095949;28;20177;-67
2022/12/21 03:02:14;;;;;;;47.33;22.60;;;9.20;99.90;;;;;;5077550;28;20211;-67
2022/12/21 03:04:56;;;;;;;53.17;24.17;;;9.30;99.90;;;;;;5077447;28;20547;-67
2022/12/21 03:07:40;;;;;;;57.87;24.37;;;9.20;99.90;;;;;;5095649;28;20158;-68
2022/12/21 03:10:39;;;;;;;53.13;24.03;;;9.20;99.90;;;;;;5077329;28;20185;-67
2022/12/21 03:13:58;;;;;;;56.30;24.60;;;9.20;99.90;;;;;;5095321;28;20161;-67
2022/12/21 03:16:45;;;;;;;57.77;22.80;;;9.20;99.90;;;;;;5016581;28;20210;-67
2022/12/21 03:19:45;;;;;;;50.40;22.53;;;9.20;99.90;;;;;;5033103;28;20186;-68
2022/12/21 03:22:32;;;;;;;50.10;23.23;;;9.20;99.90;;;;;;5067836;28;20549;-68
2022/12/21 03:25:10;;;;;;;42.27;21.37;;;9.20;99.90;;;;;;5077017;28;20563;-67
2022/12/21 03:27:42;;;;;;;51.03;22.67;;;9.20;99.90;;;;;;5095036;28;20192;-67
2022/12/21 03:30:13;;;;;;;50.30;22.57;;;9.20;99.90;;;;;;5095231;28;20234;-67
2022/12/21 03:32:58;;;;;;;48.87;22.03;;;9.20;99.90;;;;;;5095160;28;20161;-67
2022/12/21 03:35:37;;;;;;;47.47;21.73;;;9.10;99.90;;;;;;5095434;28;20161;-68
2022/12/21 03:38:08;;;;;;;48.37;20.87;;;9.10;99.90;;;;;;5076809;28;20205;-67
2022/12/21 03:40:38;;;;;;;51.33;21.00;;;9.10;99.90;;;;;;5094938;28;20256;-67
2022/12/21 03:43:14;;;;;;;46.53;21.13;;;9.10;99.90;;;;;;5094981;28;20259;-67
2022/12/21 03:45:47;;;;;;;50.67;20.27;;;9.10;99.90;;;;;;5095194;28;20165;-67
2022/12/21 03:48:18;;;;;;;42.23;20.60;;;9.00;99.90;;;;;;5094920;28;20239;-67
2022/12/21 03:50:48;;;;;;;45.13;19.90;;;9.10;99.90;;;;;;5094874;28;20162;-67
2022/12/21 03:53:53;;;;;;;46.77;20.53;;;9.10;99.90;;;;;;5076123;28;20608;-68
2022/12/21 03:56:29;;;;;;;52.60;21.50;;;9.10;99.90;;;;;;5075953;28;20273;-68
2022/12/21 03:58:56;;;;;;;48.47;21.40;;;9.10;99.90;;;;;;5076496;28;20173;-68
2022/12/21 04:01:30;;;;;;;57.17;22.73;;;9.10;99.90;;;;;;5094435;28;20179;-68
2022/12/21 04:04:01;;;;;;;49.43;21.90;;;9.10;99.90;;;;;;5076322;28;20200;-68
2022/12/21 04:06:32;;;;;;;53.20;22.63;;;9.10;99.90;;;;;;5076188;28;20169;-68
2022/12/21 04:08:58;;;;;;;54.47;22.43;;;9.10;99.90;;;;;;5094748;28;20161;-68
2022/12/21 04:14:08;;;;;;;48.40;22.03;;;9.10;99.90;;;;;;5094535;28;20203;-67
2022/12/21 04:16:33;;;;;;;40.43;19.57;;;9.10;99.90;;;;;;5094417;28;20201;-68
2022/12/21 04:21:43;;;;;;;38.50;18.57;;;9.10;99.90;;;;;;5094842;28;20596;-68
2022/12/21 04:29:37;;;;;;;33.80;17.30;;;9.10;99.90;;;;;;5094112;28;20187;-67
2022/12/21 04:32:03;;;;;;;44.87;20.23;;;9.10;99.90;;;;;;5094344;28;20181;-68
2022/12/21 04:34:29;;;;;;;35.43;16.53;;;9.00;99.90;;;;;;5094116;28;20189;-68
2022/12/21 04:37:40;;;;;;;33.73;16.80;;;9.10;99.90;;;;;;5094111;28;20223;-68
2022/12/21 04:39:40;;;;;;;35.83;16.50;;;9.10;99.90;;;;;;5082970;28;20204;-67
2022/12/21 04:42:06;;;;;;;35.60;17.93;;;9.10;99.90;;;;;;5093707;28;20650;-67
2022/12/21 04:44:32;;;;;;;27.57;15.57;;;9.10;99.90;;;;;;5093879;28;20242;-67
2022/12/21 04:46:57;;;;;;;26.67;14.60;;;9.10;99.90;;;;;;5094945;28;20522;-67
2022/12/21 04:49:23;;;;;;;25.40;13.97;;;9.10;99.90;;;;;;5094069;28;20192;-67
2022/12/21 04:51:49;;;;;;;28.17;15.38;;;9.10;99.90;;;;;;5093703;28;20184;-67
2022/12/21 04:54:14;;;;;;;30.27;14.80;;;9.10;99.90;;;;;;5093769;28;20669;-67
2022/12/21 04:56:40;;;;;;;22.97;13.13;;;9.10;99.90;;;;;;5093583;28;20290;-65
2022/12/21 04:59:06;;;;;;;22.13;12.33;;;9.00;99.90;;;;;;5093602;28;20188;-65
2022/12/21 05:01:32;;;;;;;20.55;12.48;;;9.00;99.90;;;;;;5094338;28;20173;-65
2022/12/21 05:03:58;;;;;;;22.57;12.60;;;9.00;99.90;;;;;;5076602;28;20634;-65
2022/12/21 05:06:24;;;;;;;26.97;14.50;;;9.00;99.90;;;;;;5094707;28;20522;-65
2022/12/21 05:08:49;;;;;;;21.63;12.13;;;9.00;99.90;;;;;;5095439;28;20199;-65
2022/12/21 05:11:19;;;;;;;21.77;13.20;;;9.00;99.90;;;;;;5093990;28;20213;-65
2022/12/21 05:13:45;;;;;;;22.53;11.97;;;8.90;99.90;;;;;;5093496;28;20189;-65
2022/12/21 05:16:14;;;;;;;23.27;13.90;;;9.00;99.90;;;;;;5093870;28;20180;-66
2022/12/21 05:18:40;;;;;;;21.07;12.63;;;8.90;99.90;;;;;;5093716;28;20211;-67
2022/12/21 05:21:06;;;;;;;23.77;13.33;;;9.00;99.90;;;;;;5093474;28;20181;-67
2022/12/21 05:23:32;;;;;;;20.23;13.57;;;9.00;99.90;;;;;;5093676;28;20203;-69
2022/12/21 05:26:01;;;;;;;23.93;14.00;;;8.90;99.90;;;;;;5093300;28;20176;-69
2022/12/21 05:28:27;;;;;;;24.70;13.00;;;8.90;99.90;;;;;;5075088;28;20199;-69
2022/12/21 05:30:53;;;;;;;22.80;13.10;;;9.00;99.90;;;;;;5093397;28;20169;-69
2022/12/21 05:33:19;;;;;;;20.97;12.77;;;9.00;99.90;;;;;;5075185;28;20679;-69
2022/12/21 05:35:45;;;;;;;21.30;12.67;;;9.00;99.90;;;;;;5075327;28;20219;-69
2022/12/21 05:38:11;;;;;;;19.67;12.37;;;9.00;99.90;;;;;;5093275;28;20201;-69
2022/12/21 05:40:37;;;;;;;20.17;11.73;;;8.90;99.90;;;;;;5074950;28;20185;-69
2022/12/21 05:43:04;;;;;;;14.80;9.97;;;9.00;99.90;;;;;;5093181;28;20166;-69
2022/12/21 05:45:29;;;;;;;18.53;10.57;;;8.90;99.90;;;;;;5093474;28;20582;-69
2022/12/21 05:47:55;;;;;;;18.63;11.27;;;8.90;99.90;;;;;;5075139;28;20201;-69
2022/12/21 05:50:21;;;;;;;17.07;10.13;;;8.80;99.90;;;;;;5075210;28;20589;-69
2022/12/21 05:52:47;;;;;;;21.67;12.47;;;8.80;99.90;;;;;;5093222;28;20637;-69
2022/12/21 05:55:13;;;;;;;50.77;13.40;;;8.70;99.90;;;;;;5074913;28;20204;-69
2022/12/21 05:57:38;;;;;;;27.37;12.47;;;8.70;99.90;;;;;;5074852;28;20209;-69
2022/12/21 06:00:05;;;;;;;21.90;10.90;;;8.60;99.90;;;;;;5075078;28;20526;-69
2022/12/21 06:02:31;;;;;;;43.50;12.93;;;8.60;99.90;;;;;;5093128;28;20566;-69
2022/12/21 06:04:57;;;;;;;13.63;9.37;;;8.60;99.90;;;;;;5074875;28;20204;-69
2022/12/21 06:07:22;;;;;;;13.77;8.60;;;8.60;99.90;;;;;;5093091;28;20179;-69
2022/12/21 06:09:48;;;;;;;12.03;8.53;;;8.70;99.90;;;;;;5093002;28;20614;-69
2022/12/21 06:12:14;;;;;;;16.83;9.50;;;8.70;99.90;;;;;;5092821;28;20189;-69
2022/12/21 06:14:39;;;;;;;13.87;8.97;;;8.60;99.90;;;;;;5093718;28;20200;-69
2022/12/21 06:17:05;;;;;;;11.00;7.40;;;8.60;99.90;;;;;;5078383;28;20200;-69
2022/12/21 06:19:31;;;;;;;13.87;9.10;;;8.60;99.90;;;;;;5096407;28;20153;-69
2022/12/21 06:21:57;;;;;;;20.77;12.13;;;8.60;99.90;;;;;;5096423;28;20172;-69
2022/12/21 06:24:22;;;;;;;21.93;12.70;;;8.60;99.90;;;;;;5078263;28;20669;-69
2022/12/21 06:26:48;;;;;;;22.30;13.00;;;8.70;99.90;;;;;;5096092;28;20214;-69
2022/12/21 06:29:14;;;;;;;26.37;13.90;;;8.70;99.90;;;;;;5096459;28;20613;-69
2022/12/21 06:31:39;;;;;;;23.53;14.20;;;8.70;99.90;;;;;;5078301;28;20270;-69
2022/12/21 06:34:05;;;;;;;21.13;12.77;;;8.70;99.90;;;;;;5096223;28;20276;-69
2022/12/21 06:36:31;;;;;;;25.63;14.63;;;8.70;99.90;;;;;;5096197;28;20181;-69
2022/12/21 06:38:57;;;;;;;25.93;14.33;;;8.70;99.90;;;;;;5096421;28;20173;-69
2022/12/21 06:41:23;;;;;;;24.87;14.27;;;8.70;99.90;;;;;;5095947;28;20181;-69
2022/12/21 06:43:50;;;;;;;24.67;13.57;;;8.70;99.90;;;;;;5096055;28;20271;-69
2022/12/21 06:46:17;;;;;;;24.03;12.47;;;8.70;99.90;;;;;;5077864;28;20226;-69
2022/12/21 06:48:43;;;;;;;24.27;14.07;;;8.80;99.90;;;;;;5096362;28;20173;-69
2022/12/21 06:51:20;;;;;;;33.17;15.40;;;8.80;99.90;;;;;;5077924;28;20645;-69
2022/12/21 06:53:47;;;;;;;31.57;13.83;;;8.70;99.90;;;;;;5077735;28;20203;-69
2022/12/21 06:56:16;;;;;;;27.90;13.87;;;8.70;99.90;;;;;;5096326;28;20637;-69
2022/12/21 06:58:42;;;;;;;31.00;14.50;;;8.80;99.90;;;;;;5077599;28;20532;-68
2022/12/21 07:01:26;;;;;;;32.70;16.27;;;8.80;99.90;;;;;;5095984;28;20653;-68
2022/12/21 07:03:52;;;;;;;37.53;16.93;;;8.80;99.90;;;;;;5095858;28;20703;-68
2022/12/21 07:06:20;;;;;;;25.87;14.13;;;8.80;99.90;;;;;;5096075;28;20264;-68
2022/12/21 07:08:47;;;;;;;30.87;15.33;;;8.80;99.90;;;;;;5095445;28;20274;-68
2022/12/21 07:11:17;;;;;;;25.80;15.23;;;8.80;99.90;;;;;;5095258;28;20641;-68
2022/12/21 07:13:44;;;;;;;35.03;17.33;;;8.80;99.90;;;;;;5097038;28;20203;-68
2022/12/21 07:16:11;;;;;;;30.77;16.50;;;8.80;99.90;;;;;;5096027;28;20180;-69
2022/12/21 07:18:38;;;;;;;43.30;18.63;;;8.90;99.90;;;;;;5096270;28;20207;-68
2022/12/21 07:21:12;;;;;;;32.27;17.30;;;8.90;99.90;;;;;;5096016;28;20189;-67
2022/12/21 07:23:39;;;;;;;33.63;16.97;;;8.90;99.90;;;;;;5060578;28;20197;-67
2022/12/21 07:26:15;;;;;;;37.20;17.77;;;8.90;99.90;;;;;;5094051;28;20170;-68
2022/12/21 07:28:44;;;;;;;34.33;16.23;;;8.90;99.90;;;;;;5076880;28;20197;-68
2022/12/21 07:31:21;;;;;;;33.57;14.90;;;8.80;99.90;;;;;;5074803;28;20612;-68
2022/12/21 07:33:48;;;;;;;31.60;14.10;;;8.90;99.90;;;;;;5076959;28;20197;-68
2022/12/21 07:36:14;;;;;;;24.30;13.90;;;8.80;99.90;;;;;;5076771;28;20200;-68
2022/12/21 07:38:45;;;;;;;23.10;12.53;;;8.90;99.90;;;;;;5076696;28;20205;-68
2022/12/21 07:41:14;;;;;;;21.17;12.47;;;8.90;99.90;;;;;;5058562;28;20185;-68
2022/12/21 07:43:40;;;;;;;21.47;11.60;;;8.90;99.90;;;;;;5076646;28;20197;-68
2022/12/21 07:46:06;;;;;;;17.07;10.30;;;8.80;99.90;;;;;;5076591;28;20238;-68
2022/12/21 07:48:36;;;;;;;20.10;10.73;;;8.80;99.90;;;;;;5076767;28;20265;-68
2022/12/21 07:51:02;;;;;;;19.57;11.80;;;8.80;99.90;;;;;;5076422;28;20264;-68
2022/12/21 07:53:29;;;;;;;14.93;8.80;;;8.80;99.90;;;;;;5076353;28;20199;-68
2022/12/21 07:56:02;;;;;;;14.80;9.13;;;8.80;99.90;;;;;;5076070;28;20183;-68
2022/12/21 07:58:28;;;;;;;16.50;9.33;;;8.70;99.90;;;;;;5076075;28;20201;-68
2022/12/21 08:00:57;;;;;;;16.23;8.87;;;8.70;99.90;;;;;;5059970;28;20188;-68
2022/12/21 08:03:23;;;;;;;14.00;8.70;;;8.70;99.90;;;;;;5075193;28;20201;-68
2022/12/21 08:05:52;;;;;;;15.47;9.80;;;8.60;99.90;;;;;;5094429;28;20180;-68
2022/12/21 08:08:18;;;;;;;19.03;11.10;;;8.70;99.90;;;;;;5076096;28;20173;-68
2022/12/21 08:10:45;;;;;;;26.63;13.27;;;8.70;99.90;;;;;;5076142;28;20188;-68
2022/12/21 08:13:11;;;;;;;34.87;15.03;;;8.70;99.90;;;;;;5075887;28;20184;-68
2022/12/21 08:15:37;;;;;;;28.73;14.60;;;8.80;99.90;;;;;;5076010;28;20230;-68
2022/12/21 08:18:03;;;;;;;25.87;13.50;;;8.80;99.90;;;;;;5076026;28;20201;-68
2022/12/21 08:20:29;;;;;;;28.10;14.07;;;8.90;99.90;;;;;;5075977;28;20172;-68
2022/12/21 08:22:55;;;;;;;28.13;14.93;;;8.90;99.90;;;;;;5075927;28;20169;-68
2022/12/21 08:25:26;;;;;;;30.60;14.87;;;8.90;99.90;;;;;;5094449;28;20180;-68
2022/12/21 08:27:52;;;;;;;32.50;14.67;;;8.90;99.90;;;;;;5075889;28;20220;-68
2022/12/21 08:30:18;;;;;;;25.47;12.97;;;8.80;99.90;;;;;;5076071;28;20181;-67
2022/12/21 08:32:44;;;;;;;22.87;11.93;;;8.80;99.90;;;;;;5075841;28;20634;-68
2022/12/21 08:35:12;;;;;;;18.13;9.37;;;8.70;99.90;;;;;;5075701;28;20625;-68
2022/12/21 08:37:38;;;;;;;20.57;10.00;;;8.70;99.90;;;;;;5075315;28;20342;-68
2022/12/21 08:40:08;;;;;;;14.87;8.00;;;8.60;99.90;;;;;;5075642;28;20268;-68
2022/12/21 08:42:34;;;;;;;17.73;9.60;;;8.60;99.90;;;;;;5093541;28;20177;-68
2022/12/21 08:45:00;;;;;;;18.37;10.27;;;8.60;99.90;;;;;;5093795;28;20191;-68
2022/12/21 08:47:26;;;;;;;15.67;9.90;;;8.60;99.90;;;;;;5093481;28;20188;-68
2022/12/21 08:49:56;;;;;;;13.83;9.60;;;8.70;99.90;;;;;;5075478;28;20188;-68
2022/12/21 08:52:25;;;;;;;17.47;10.40;;;8.80;99.90;;;;;;5075859;28;20192;-68
2022/12/21 08:54:54;;;;;;;22.87;12.23;;;8.90;99.90;;;;;;5075358;28;20197;-68
2022/12/21 08:57:21;;;;;;;22.10;12.27;;;9.00;99.90;;;;;;5075083;28;20200;-68
2022/12/21 08:59:49;;;;;;;23.73;13.63;;;9.00;99.90;;;;;;5075285;28;20209;-68
2022/12/21 09:02:24;;;;;;;25.10;12.83;;;9.00;99.90;;;;;;5093577;28;20173;-67
2022/12/21 09:04:50;;;;;;;25.87;13.30;;;9.00;99.90;;;;;;5075339;28;20219;-67
2022/12/21 09:07:21;;;;;;;27.37;14.13;;;9.00;99.90;;;;;;5075445;28;20645;-68
2022/12/21 09:09:50;;;;;;;26.47;13.30;;;9.00;99.90;;;;;;5059378;28;20201;-68
2022/12/21 09:12:20;;;;;;;25.50;13.43;;;9.00;99.90;;;;;;5093221;28;20715;-67
2022/12/21 09:14:46;;;;;;;25.03;12.83;;;9.10;99.90;;;;;;5093617;28;20615;-69
2022/12/21 09:17:12;;;;;;;24.43;12.67;;;9.10;99.90;;;;;;5093733;28;20193;-68
2022/12/21 09:19:39;;;;;;;19.50;12.67;;;9.20;99.90;;;;;;5093949;28;20169;-66
2022/12/21 09:22:04;;;;;;;29.23;13.80;;;9.20;99.90;;;;;;5075901;28;20173;-69
2022/12/21 09:24:30;;;;;;;25.07;13.13;;;9.20;99.90;;;;;;5093632;28;20247;-68
2022/12/21 09:26:56;;;;;;;23.70;12.33;;;9.30;99.90;;;;;;5093632;28;20210;-69
2022/12/21 09:29:23;;;;;;;28.33;14.63;;;9.30;99.90;;;;;;5075452;28;20630;-69
2022/12/21 09:31:50;;;;;;;27.50;13.93;;;9.30;99.90;;;;;;5092070;28;20546;-69
2022/12/21 09:34:17;;;;;;;24.73;14.07;;;9.30;99.90;;;;;;5093453;28;20188;-69
2022/12/21 09:36:44;;;;;;;26.33;14.73;;;9.30;99.90;;;;;;5093631;28;20205;-69
2022/12/21 09:39:14;;;;;;;26.47;15.33;;;9.30;99.90;;;;;;5093769;28;20181;-69
2022/12/21 09:42:18;;;;;;;23.13;14.23;;;9.30;99.90;;;;;;5046911;28;20213;-70
2022/12/21 09:45:29;;;;;;;33.80;16.67;;;9.30;99.90;;;;;;5038149;28;20206;-69
2022/12/21 09:48:22;;;;;;;27.23;15.40;;;9.40;99.90;;;;;;5054050;28;20189;-69
2022/12/21 09:51:03;;;;;;;31.07;15.93;;;9.40;99.90;;;;;;5057823;28;20205;-69
2022/12/21 09:53:38;;;;;;;35.47;17.23;;;9.40;99.90;;;;;;5077045;28;20204;-69
2022/12/21 09:56:13;;;;;;;37.07;16.17;;;9.40;99.90;;;;;;5058466;28;20234;-69
2022/12/21 09:58:44;;;;;;;33.73;16.27;;;9.40;99.90;;;;;;5058823;28;20200;-68
2022/12/21 10:01:33;;;;;;;32.07;17.97;;;9.40;99.90;;;;;;5076982;28;20158;-68
2022/12/21 10:04:25;;;;;;;34.73;18.20;;;9.40;99.90;;;;;;5049221;28;20205;-68
2022/12/21 10:06:59;;;;;;;37.33;18.87;;;9.40;99.90;;;;;;5076943;28;20207;-68
2022/12/21 10:09:53;;;;;;;32.93;19.00;;;9.40;99.90;;;;;;5076624;28;20169;-68
2022/12/21 10:12:30;;;;;;;30.47;18.27;;;9.40;99.90;;;;;;5093578;28;20209;-68
2022/12/21 10:15:07;;;;;;;37.13;20.43;;;9.50;99.90;;;;;;5097717;28;20661;-68
2022/12/21 10:18:05;;;;;;;32.23;19.83;;;9.50;99.90;;;;;;5097111;28;20275;-68
2022/12/21 10:20:44;;;;;;;36.73;21.27;;;9.60;99.90;;;;;;5096661;28;20168;-68
2022/12/21 10:23:27;;;;;;;34.33;20.60;;;9.60;99.90;;;;;;5096946;28;20169;-68
2022/12/21 10:25:59;;;;;;;43.13;21.30;;;9.60;99.90;;;;;;5096835;28;20154;-68
2022/12/21 10:28:49;;;;;;;39.07;21.77;;;9.60;99.90;;;;;;5078127;28;20193;-68
2022/12/21 10:31:35;;;;;;;33.83;21.40;;;9.60;99.90;;;;;;5096280;28;20210;-68
2022/12/21 10:34:05;;;;;;;37.83;22.13;;;9.60;99.90;;;;;;5096512;28;20193;-68
2022/12/21 10:36:36;;;;;;;41.07;23.20;;;9.60;99.90;;;;;;5096219;28;20218;-68
2022/12/21 10:39:04;;;;;;;35.57;21.67;;;9.50;99.90;;;;;;5096276;28;20169;-68
2022/12/21 10:41:34;;;;;;;31.83;21.03;;;9.50;99.90;;;;;;5096039;28;20538;-68
2022/12/21 10:44:00;;;;;;;30.33;20.03;;;9.50;99.90;;;;;;5096207;28;20186;-69
2022/12/21 10:46:36;;;;;;;31.10;20.03;;;9.50;99.90;;;;;;5078004;28;20173;-69
2022/12/21 10:49:21;;;;;;;28.33;17.50;;;9.50;99.90;;;;;;5096590;28;20172;-69
2022/12/21 10:51:46;;;;;;;29.80;17.80;;;9.50;99.90;;;;;;5078311;28;20251;-69
2022/12/21 10:54:12;;;;;;;33.50;18.93;;;9.50;99.90;;;;;;5096588;28;20216;-69
2022/12/21 10:56:48;;;;;;;52.97;22.70;;;9.50;99.90;;;;;;5096133;28;20576;-69
2022/12/21 10:59:17;;;;;;;58.43;22.73;;;9.50;99.90;;;;;;5096349;28;20203;-68
2022/12/21 11:01:43;;;;;;;62.77;26.47;;;9.40;99.90;;;;;;5096436;28;20683;-68
2022/12/21 11:04:30;;;;;;;60.17;24.77;;;9.30;99.90;;;;;;5096237;28;20197;-68
2022/12/21 11:06:59;;;;;;;58.33;22.00;;;9.30;99.90;;;;;;5078823;28;20226;-69
2022/12/21 11:09:42;;;;;;;46.53;20.93;;;9.10;99.90;;;;;;5078859;28;20548;-69
2022/12/21 11:12:22;;;;;;;49.60;21.00;;;9.10;99.90;;;;;;5077395;28;20234;-69
2022/12/21 11:14:49;;;;;;;47.00;20.87;;;9.10;99.90;;;;;;5095556;28;20271;-68
2022/12/21 11:17:20;;;;;;;46.67;20.97;;;9.00;99.90;;;;;;5077660;28;20201;-68
2022/12/21 11:19:48;;;;;;;43.27;19.30;;;9.00;99.90;;;;;;5095674;28;20236;-69
2022/12/21 11:22:15;;;;;;;54.53;20.60;;;9.00;99.90;;;;;;5095624;28;20169;-69
2022/12/21 11:24:43;;;;;;;40.03;19.20;;;9.10;99.90;;;;;;5095503;28;20181;-68
2022/12/21 11:27:21;;;;;;;60.13;26.40;;;9.00;99.90;;;;;;5077007;28;20283;-68
2022/12/21 11:30:20;;;;;;;36.53;19.63;;;9.00;99.90;;;;;;5077177;28;20208;-68
2022/12/21 11:32:49;;;;;;;33.07;17.03;;;9.00;99.90;;;;;;5095491;28;20158;-68
2022/12/21 11:35:18;;;;;;;30.20;15.83;;;9.00;99.90;;;;;;5076920;28;20193;-69
2022/12/21 11:37:46;;;;;;;26.87;14.10;;;9.00;99.90;;;;;;5095085;28;20201;-68
2022/12/21 11:40:16;;;;;;;31.63;14.80;;;9.00;99.90;;;;;;5095449;28;20157;-69
2022/12/21 11:43:03;;;;;;;23.33;13.63;;;9.00;99.90;;;;;;5095084;28;20237;-69
2022/12/21 11:45:42;;;;;;;27.37;13.50;;;9.00;99.90;;;;;;5095355;28;20550;-68
2022/12/21 11:48:41;;;;;;;24.47;12.37;;;9.00;99.90;;;;;;5076922;28;20173;-68
2022/12/21 11:51:37;;;;;;;17.07;10.70;;;9.00;99.90;;;;;;5076810;28;20173;-68
2022/12/21 11:54:18;;;;;;;20.57;12.13;;;9.00;99.90;;;;;;5076743;28;20200;-68
2022/12/21 11:56:55;;;;;;;17.80;11.53;;;9.00;99.90;;;;;;5094739;28;20162;-69
2022/12/21 11:59:39;;;;;;;17.53;10.33;;;9.00;99.90;;;;;;5076502;28;20531;-68
2022/12/21 12:02:19;;;;;;;13.73;9.23;;;9.00;99.90;;;;;;5076625;28;20762;-69
2022/12/21 12:05:17;;;;;;;15.23;9.70;;;9.00;99.90;;;;;;5076427;28;20192;-68
2022/12/21 12:07:58;;;;;;;13.47;8.77;;;9.00;99.90;;;;;;5095273;28;20165;-69
2022/12/21 12:10:37;;;;;;;13.83;8.17;;;9.00;99.90;;;;;;5094517;28;20214;-68
2022/12/21 12:13:06;;;;;;;10.10;7.50;;;8.90;99.90;;;;;;5093816;28;20639;-69
2022/12/21 12:15:55;;;;;;;12.50;7.47;;;8.90;99.90;;;;;;5076212;28;20281;-68
2022/12/21 12:18:24;;;;;;;10.50;7.03;;;8.90;99.90;;;;;;5094414;28;20196;-68
2022/12/21 12:21:27;;;;;;;12.00;7.30;;;8.80;99.90;;;;;;5094325;28;20161;-68
2022/12/21 12:24:04;;;;;;;15.17;7.67;;;8.80;99.90;;;;;;5094247;28;20193;-68
2022/12/21 12:26:42;;;;;;;14.70;6.77;;;8.80;99.90;;;;;;5094177;28;20154;-69
2022/12/21 12:29:30;;;;;;;10.17;6.47;;;8.80;99.90;;;;;;5094227;28;20161;-68
2022/12/21 12:32:01;;;;;;;16.10;6.70;;;8.80;99.90;;;;;;5094731;28;20206;-68
2022/12/21 12:34:48;;;;;;;14.20;6.70;;;8.80;99.90;;;;;;5094055;28;20199;-68
2022/12/21 12:37:16;;;;;;;12.27;7.17;;;8.80;99.90;;;;;;5094283;28;20192;-68
2022/12/21 12:40:04;;;;;;;11.23;6.97;;;8.70;99.90;;;;;;5075862;28;20180;-68
2022/12/21 12:42:37;;;;;;;14.07;7.57;;;8.70;99.90;;;;;;5094057;28;20180;-68
2022/12/21 12:45:26;;;;;;;12.77;7.50;;;8.70;99.90;;;;;;5093960;28;20566;-68
2022/12/21 12:48:39;;;;;;;17.97;8.40;;;8.70;99.90;;;;;;5075722;28;20173;-68
2022/12/21 12:51:10;;;;;;;18.23;8.60;;;8.70;99.90;;;;;;5031728;28;20202;-68
2022/12/21 12:53:39;;;;;;;17.93;8.60;;;8.60;99.90;;;;;;5088288;28;20220;-68
2022/12/21 12:56:20;;;;;;;18.53;9.53;;;8.60;99.90;;;;;;5093874;28;20208;-68
2022/12/21 12:59:14;;;;;;;20.27;9.03;;;8.60;99.90;;;;;;5093582;28;20204;-68
2022/12/21 13:02:09;;;;;;;18.00;10.20;;;8.60;99.90;;;;;;5093856;28;20156;-68
2022/12/21 13:04:46;;;;;;;19.40;10.30;;;8.60;99.90;;;;;;5094233;28;20596;-68
2022/12/21 13:07:22;;;;;;;18.80;10.17;;;8.60;99.90;;;;;;5093648;28;20179;-68
2022/12/21 13:10:11;;;;;;;22.17;9.03;;;8.60;99.90;;;;;;5094066;28;20182;-68
2022/12/21 13:12:48;;;;;;;20.17;9.20;;;8.60;99.90;;;;;;5093601;28;20255;-68
2022/12/21 13:15:19;;;;;;;17.50;9.37;;;8.50;99.90;;;;;;5093826;28;20188;-68
2022/12/21 13:17:54;;;;;;;16.77;9.27;;;8.50;99.90;;;;;;5093431;28;20673;-68
2022/12/21 13:20:22;;;;;;;19.17;9.10;;;8.50;99.90;;;;;;5093475;28;20169;-68